sensor_id;sensor_type;location;lat;lon;timestamp;temperature;humidity
67899;DHT22;54699;51.796;10.956;2024-02-26T00:02:07;17.70;53.00
67899;DHT22;54699;51.796;10.956;2024-02-26T00:04:33;17.70;53.00
67899;DHT22;54699;51.796;10.956;2024-02-26T00:07:02;17.70;53.00
67899;DHT22;54699;51.796;10.956;2024-02-26T00:09:28;17.70;53.00
67899;DHT22;54699;51.796;10.956;2024-02-26T00:11:55;17.70;53.00
67899;DHT22;54699;51.796;10.956;2024-02-26T00:14:23;17.70;53.00
67899;DHT22;54699;51.796;10.956;2024-02-26T00:16:50;17.70;53.00
67899;DHT22;54699;51.796;10.956;2024-02-26T00:19:16;17.60;52.90
67899;DHT22;54699;51.796;10.956;2024-02-26T00:21:43;17.60;52.90
67899;DHT22;54699;51.796;10.956;2024-02-26T00:24:11;17.70;52.90
67899;DHT22;54699;51.796;10.956;2024-02-26T00:26:38;17.60;52.90
67899;DHT22;54699;51.796;10.956;2024-02-26T00:29:05;17.60;52.90
67899;DHT22;54699;51.796;10.956;2024-02-26T00:31:32;17.60;52.90
67899;DHT22;54699;51.796;10.956;2024-02-26T00:33:59;17.60;52.80
67899;DHT22;54699;51.796;10.956;2024-02-26T00:36:26;17.60;52.90
67899;DHT22;54699;51.796;10.956;2024-02-26T00:38:53;17.60;52.90
67899;DHT22;54699;51.796;10.956;2024-02-26T00:41:21;17.60;52.80
67899;DHT22;54699;51.796;10.956;2024-02-26T00:43:48;17.60;52.90
67899;DHT22;54699;51.796;10.956;2024-02-26T00:46:15;17.60;52.80
67899;DHT22;54699;51.796;10.956;2024-02-26T00:48:42;17.60;52.90
67899;DHT22;54699;51.796;10.956;2024-02-26T00:51:09;17.60;52.80
67899;DHT22;54699;51.796;10.956;2024-02-26T00:53:35;17.60;52.80
67899;DHT22;54699;51.796;10.956;2024-02-26T00:56:02;17.60;52.80
67899;DHT22;54699;51.796;10.956;2024-02-26T00:58:32;17.60;52.80
67899;DHT22;54699;51.796;10.956;2024-02-26T01:00:59;17.60;52.80
67899;DHT22;54699;51.796;10.956;2024-02-26T01:03:25;17.60;52.80
67899;DHT22;54699;51.796;10.956;2024-02-26T01:05:52;17.60;52.70
67899;DHT22;54699;51.796;10.956;2024-02-26T01:08:19;17.60;52.80
67899;DHT22;54699;51.796;10.956;2024-02-26T01:10:46;17.60;52.80
67899;DHT22;54699;51.796;10.956;2024-02-26T01:13:13;17.60;52.80
67899;DHT22;54699;51.796;10.956;2024-02-26T01:15:43;17.60;52.80
67899;DHT22;54699;51.796;10.956;2024-02-26T01:18:10;17.60;52.80
67899;DHT22;54699;51.796;10.956;2024-02-26T01:20:37;17.60;52.70
67899;DHT22;54699;51.796;10.956;2024-02-26T01:23:04;17.50;52.70
67899;DHT22;54699;51.796;10.956;2024-02-26T01:25:31;17.60;52.80
67899;DHT22;54699;51.796;10.956;2024-02-26T01:27:58;17.50;52.70
67899;DHT22;54699;51.796;10.956;2024-02-26T01:30:24;17.50;52.70
67899;DHT22;54699;51.796;10.956;2024-02-26T01:32:53;17.50;52.70
67899;DHT22;54699;51.796;10.956;2024-02-26T01:35:20;17.50;52.70
67899;DHT22;54699;51.796;10.956;2024-02-26T01:37:46;17.50;52.70
67899;DHT22;54699;51.796;10.956;2024-02-26T01:40:13;17.50;52.70
67899;DHT22;54699;51.796;10.956;2024-02-26T01:42:43;17.50;52.70
67899;DHT22;54699;51.796;10.956;2024-02-26T01:45:12;17.50;52.70
67899;DHT22;54699;51.796;10.956;2024-02-26T01:47:48;17.50;52.70
67899;DHT22;54699;51.796;10.956;2024-02-26T01:50:18;17.50;52.60
67899;DHT22;54699;51.796;10.956;2024-02-26T01:52:45;17.60;52.80
67899;DHT22;54699;51.796;10.956;2024-02-26T01:55:13;17.50;52.70
67899;DHT22;54699;51.796;10.956;2024-02-26T01:57:41;17.50;52.70
67899;DHT22;54699;51.796;10.956;2024-02-26T02:00:10;17.50;52.70
67899;DHT22;54699;51.796;10.956;2024-02-26T02:02:37;17.50;52.60
67899;DHT22;54699;51.796;10.956;2024-02-26T02:05:07;17.50;52.70
67899;DHT22;54699;51.796;10.956;2024-02-26T02:07:39;17.50;52.70
67899;DHT22;54699;51.796;10.956;2024-02-26T02:10:07;17.50;52.60
67899;DHT22;54699;51.796;10.956;2024-02-26T02:12:36;17.50;52.70
67899;DHT22;54699;51.796;10.956;2024-02-26T02:15:05;17.50;52.70
67899;DHT22;54699;51.796;10.956;2024-02-26T02:17:33;17.50;52.60
67899;DHT22;54699;51.796;10.956;2024-02-26T02:19:59;17.50;52.60
67899;DHT22;54699;51.796;10.956;2024-02-26T02:22:28;17.50;52.60
67899;DHT22;54699;51.796;10.956;2024-02-26T02:24:57;17.50;52.70
67899;DHT22;54699;51.796;10.956;2024-02-26T02:27:24;17.50;52.60
67899;DHT22;54699;51.796;10.956;2024-02-26T02:29:51;17.50;52.60
67899;DHT22;54699;51.796;10.956;2024-02-26T02:32:18;17.50;52.60
67899;DHT22;54699;51.796;10.956;2024-02-26T02:34:46;17.50;52.60
67899;DHT22;54699;51.796;10.956;2024-02-26T02:37:13;17.40;53.40
67899;DHT22;54699;51.796;10.956;2024-02-26T02:39:41;17.50;52.60
67899;DHT22;54699;51.796;10.956;2024-02-26T02:42:08;17.50;52.50
67899;DHT22;54699;51.796;10.956;2024-02-26T02:44:36;17.40;52.50
67899;DHT22;54699;51.796;10.956;2024-02-26T02:47:03;17.40;52.50
67899;DHT22;54699;51.796;10.956;2024-02-26T02:49:30;17.40;52.50
67899;DHT22;54699;51.796;10.956;2024-02-26T02:51:56;17.40;52.50
67899;DHT22;54699;51.796;10.956;2024-02-26T02:54:23;17.50;52.60
67899;DHT22;54699;51.796;10.956;2024-02-26T02:56:52;17.40;52.40
67899;DHT22;54699;51.796;10.956;2024-02-26T02:59:18;17.40;52.40
67899;DHT22;54699;51.796;10.956;2024-02-26T03:01:45;17.40;52.50
67899;DHT22;54699;51.796;10.956;2024-02-26T03:04:12;17.40;52.40
67899;DHT22;54699;51.796;10.956;2024-02-26T03:06:39;17.40;52.50
67899;DHT22;54699;51.796;10.956;2024-02-26T03:09:06;17.40;52.40
67899;DHT22;54699;51.796;10.956;2024-02-26T03:11:33;17.40;52.50
67899;DHT22;54699;51.796;10.956;2024-02-26T03:14:01;17.40;52.50
67899;DHT22;54699;51.796;10.956;2024-02-26T03:16:28;17.40;52.50
67899;DHT22;54699;51.796;10.956;2024-02-26T03:18:55;17.40;52.50
67899;DHT22;54699;51.796;10.956;2024-02-26T03:21:22;17.40;52.50
67899;DHT22;54699;51.796;10.956;2024-02-26T03:23:53;17.40;52.50
67899;DHT22;54699;51.796;10.956;2024-02-26T03:26:20;17.40;52.40
67899;DHT22;54699;51.796;10.956;2024-02-26T03:28:47;17.40;52.50
67899;DHT22;54699;51.796;10.956;2024-02-26T03:31:15;17.40;52.50
67899;DHT22;54699;51.796;10.956;2024-02-26T03:33:46;17.40;52.40
67899;DHT22;54699;51.796;10.956;2024-02-26T03:36:13;17.40;52.40
67899;DHT22;54699;51.796;10.956;2024-02-26T03:38:40;17.40;52.40
67899;DHT22;54699;51.796;10.956;2024-02-26T03:41:07;17.40;52.50
67899;DHT22;54699;51.796;10.956;2024-02-26T03:43:34;17.40;52.40
67899;DHT22;54699;51.796;10.956;2024-02-26T03:46:01;17.40;52.40
67899;DHT22;54699;51.796;10.956;2024-02-26T03:48:32;17.40;52.40
67899;DHT22;54699;51.796;10.956;2024-02-26T03:50:59;17.40;52.40
67899;DHT22;54699;51.796;10.956;2024-02-26T03:53:26;17.40;52.40
67899;DHT22;54699;51.796;10.956;2024-02-26T03:55:53;17.40;52.40
67899;DHT22;54699;51.796;10.956;2024-02-26T03:58:20;17.40;52.40
67899;DHT22;54699;51.796;10.956;2024-02-26T04:00:47;17.40;52.30
67899;DHT22;54699;51.796;10.956;2024-02-26T04:03:14;17.40;52.40
67899;DHT22;54699;51.796;10.956;2024-02-26T04:05:42;17.40;52.40
67899;DHT22;54699;51.796;10.956;2024-02-26T04:08:09;17.40;52.40
67899;DHT22;54699;51.796;10.956;2024-02-26T04:10:36;17.30;52.30
67899;DHT22;54699;51.796;10.956;2024-02-26T04:13:04;17.30;53.20
67899;DHT22;54699;51.796;10.956;2024-02-26T04:15:31;17.30;52.20
67899;DHT22;54699;51.796;10.956;2024-02-26T04:17:58;17.30;52.30
67899;DHT22;54699;51.796;10.956;2024-02-26T04:20:25;17.30;52.30
67899;DHT22;54699;51.796;10.956;2024-02-26T04:22:53;17.30;52.20
67899;DHT22;54699;51.796;10.956;2024-02-26T04:25:20;17.30;52.30
67899;DHT22;54699;51.796;10.956;2024-02-26T04:27:47;17.30;52.30
67899;DHT22;54699;51.796;10.956;2024-02-26T04:30:13;17.30;52.20
67899;DHT22;54699;51.796;10.956;2024-02-26T04:32:40;17.30;52.20
67899;DHT22;54699;51.796;10.956;2024-02-26T04:35:07;17.30;52.20
67899;DHT22;54699;51.796;10.956;2024-02-26T04:37:35;17.30;52.20
67899;DHT22;54699;51.796;10.956;2024-02-26T04:40:03;17.30;52.20
67899;DHT22;54699;51.796;10.956;2024-02-26T04:42:31;17.30;52.20
67899;DHT22;54699;51.796;10.956;2024-02-26T04:44:58;17.30;52.10
67899;DHT22;54699;51.796;10.956;2024-02-26T04:47:25;17.30;52.20
67899;DHT22;54699;51.796;10.956;2024-02-26T04:49:52;17.30;52.10
67899;DHT22;54699;51.796;10.956;2024-02-26T04:52:19;17.30;52.10
67899;DHT22;54699;51.796;10.956;2024-02-26T04:54:46;17.30;52.10
67899;DHT22;54699;51.796;10.956;2024-02-26T04:57:14;17.30;52.20
67899;DHT22;54699;51.796;10.956;2024-02-26T04:59:43;17.30;53.10
67899;DHT22;54699;51.796;10.956;2024-02-26T05:02:11;17.30;52.10
67899;DHT22;54699;51.796;10.956;2024-02-26T05:04:38;17.30;52.10
67899;DHT22;54699;51.796;10.956;2024-02-26T05:07:04;17.30;52.10
67899;DHT22;54699;51.796;10.956;2024-02-26T05:09:31;17.30;53.00
67899;DHT22;54699;51.796;10.956;2024-02-26T05:11:58;17.30;52.10
67899;DHT22;54699;51.796;10.956;2024-02-26T05:14:30;17.30;52.10
67899;DHT22;54699;51.796;10.956;2024-02-26T05:16:57;17.30;52.10
67899;DHT22;54699;51.796;10.956;2024-02-26T05:19:23;17.30;52.10
67899;DHT22;54699;51.796;10.956;2024-02-26T05:21:51;17.30;52.00
67899;DHT22;54699;51.796;10.956;2024-02-26T05:24:18;17.30;52.10
67899;DHT22;54699;51.796;10.956;2024-02-26T05:26:47;17.30;52.10
67899;DHT22;54699;51.796;10.956;2024-02-26T05:29:15;17.30;52.00
67899;DHT22;54699;51.796;10.956;2024-02-26T05:31:43;17.30;51.90
67899;DHT22;54699;51.796;10.956;2024-02-26T05:34:10;17.30;52.00
67899;DHT22;54699;51.796;10.956;2024-02-26T05:36:37;17.30;52.00
67899;DHT22;54699;51.796;10.956;2024-02-26T05:39:04;17.40;52.00
67899;DHT22;54699;51.796;10.956;2024-02-26T05:41:31;17.50;51.80
67899;DHT22;54699;51.796;10.956;2024-02-26T05:43:58;17.80;51.60
67899;DHT22;54699;51.796;10.956;2024-02-26T05:46:25;18.10;51.00
67899;DHT22;54699;51.796;10.956;2024-02-26T05:48:53;18.50;50.20
67899;DHT22;54699;51.796;10.956;2024-02-26T05:51:20;18.80;49.40
67899;DHT22;54699;51.796;10.956;2024-02-26T05:53:48;19.00;49.10
67899;DHT22;54699;51.796;10.956;2024-02-26T05:56:19;19.20;47.50
67899;DHT22;54699;51.796;10.956;2024-02-26T05:58:47;19.40;46.50
67899;DHT22;54699;51.796;10.956;2024-02-26T06:01:15;19.70;46.40
67899;DHT22;54699;51.796;10.956;2024-02-26T06:03:42;19.90;45.90
67899;DHT22;54699;51.796;10.956;2024-02-26T06:06:11;20.00;45.00
67899;DHT22;54699;51.796;10.956;2024-02-26T06:08:40;20.30;44.90
67899;DHT22;54699;51.796;10.956;2024-02-26T06:11:06;20.30;44.70
67899;DHT22;54699;51.796;10.956;2024-02-26T06:13:34;20.40;44.30
67899;DHT22;54699;51.796;10.956;2024-02-26T06:16:02;20.50;43.80
67899;DHT22;54699;51.796;10.956;2024-02-26T06:18:30;20.90;43.40
67899;DHT22;54699;51.796;10.956;2024-02-26T06:20:57;21.10;42.80
67899;DHT22;54699;51.796;10.956;2024-02-26T06:23:26;21.30;42.50
67899;DHT22;54699;51.796;10.956;2024-02-26T06:25:54;21.30;42.30
67899;DHT22;54699;51.796;10.956;2024-02-26T06:28:21;21.30;42.20
67899;DHT22;54699;51.796;10.956;2024-02-26T06:30:48;21.40;41.90
67899;DHT22;54699;51.796;10.956;2024-02-26T06:33:16;21.30;41.70
67899;DHT22;54699;51.796;10.956;2024-02-26T06:35:42;21.40;41.60
67899;DHT22;54699;51.796;10.956;2024-02-26T06:38:10;21.40;41.60
67899;DHT22;54699;51.796;10.956;2024-02-26T06:40:40;21.40;41.50
67899;DHT22;54699;51.796;10.956;2024-02-26T06:43:07;21.50;41.40
67899;DHT22;54699;51.796;10.956;2024-02-26T06:45:34;21.70;41.30
67899;DHT22;54699;51.796;10.956;2024-02-26T06:48:01;21.60;41.20
67899;DHT22;54699;51.796;10.956;2024-02-26T06:50:29;21.60;41.20
67899;DHT22;54699;51.796;10.956;2024-02-26T06:52:57;21.80;40.80
67899;DHT22;54699;51.796;10.956;2024-02-26T06:55:25;21.60;40.70
67899;DHT22;54699;51.796;10.956;2024-02-26T06:57:53;21.60;40.50
67899;DHT22;54699;51.796;10.956;2024-02-26T07:00:20;21.80;40.90
67899;DHT22;54699;51.796;10.956;2024-02-26T07:02:47;21.80;40.90
67899;DHT22;54699;51.796;10.956;2024-02-26T07:05:14;21.70;40.70
67899;DHT22;54699;51.796;10.956;2024-02-26T07:07:41;21.80;40.80
67899;DHT22;54699;51.796;10.956;2024-02-26T07:10:10;21.80;40.60
67899;DHT22;54699;51.796;10.956;2024-02-26T07:12:37;21.90;40.40
67899;DHT22;54699;51.796;10.956;2024-02-26T07:15:06;22.00;40.10
67899;DHT22;54699;51.796;10.956;2024-02-26T07:17:34;22.20;40.10
67899;DHT22;54699;51.796;10.956;2024-02-26T07:20:05;22.20;39.80
67899;DHT22;54699;51.796;10.956;2024-02-26T07:22:32;22.20;40.00
67899;DHT22;54699;51.796;10.956;2024-02-26T07:24:59;22.20;40.00
67899;DHT22;54699;51.796;10.956;2024-02-26T07:27:26;22.10;40.10
67899;DHT22;54699;51.796;10.956;2024-02-26T07:29:53;22.20;40.00
67899;DHT22;54699;51.796;10.956;2024-02-26T07:32:22;22.10;40.00
67899;DHT22;54699;51.796;10.956;2024-02-26T07:34:49;22.10;40.00
67899;DHT22;54699;51.796;10.956;2024-02-26T07:37:16;22.00;40.00
67899;DHT22;54699;51.796;10.956;2024-02-26T07:39:43;21.90;40.10
67899;DHT22;54699;51.796;10.956;2024-02-26T07:42:10;22.00;40.20
67899;DHT22;54699;51.796;10.956;2024-02-26T07:44:37;22.00;40.10
67899;DHT22;54699;51.796;10.956;2024-02-26T07:47:05;22.00;41.00
67899;DHT22;54699;51.796;10.956;2024-02-26T07:49:34;22.10;40.10
67899;DHT22;54699;51.796;10.956;2024-02-26T07:52:01;22.20;40.10
67899;DHT22;54699;51.796;10.956;2024-02-26T07:54:28;22.10;39.90
67899;DHT22;54699;51.796;10.956;2024-02-26T07:56:55;22.10;40.00
67899;DHT22;54699;51.796;10.956;2024-02-26T07:59:22;22.00;39.90
67899;DHT22;54699;51.796;10.956;2024-02-26T08:01:50;22.10;40.10
67899;DHT22;54699;51.796;10.956;2024-02-26T08:04:17;22.10;39.90
67899;DHT22;54699;51.796;10.956;2024-02-26T08:06:45;22.20;40.00
67899;DHT22;54699;51.796;10.956;2024-02-26T08:09:13;22.30;40.50
67899;DHT22;54699;51.796;10.956;2024-02-26T08:11:40;22.30;39.80
67899;DHT22;54699;51.796;10.956;2024-02-26T08:14:07;22.40;39.80
67899;DHT22;54699;51.796;10.956;2024-02-26T08:16:34;22.40;39.90
67899;DHT22;54699;51.796;10.956;2024-02-26T08:19:02;22.30;39.90
67899;DHT22;54699;51.796;10.956;2024-02-26T08:21:29;22.10;40.00
67899;DHT22;54699;51.796;10.956;2024-02-26T08:23:58;22.20;40.00
67899;DHT22;54699;51.796;10.956;2024-02-26T08:26:25;22.10;40.10
67899;DHT22;54699;51.796;10.956;2024-02-26T08:28:52;22.30;39.90
67899;DHT22;54699;51.796;10.956;2024-02-26T08:31:21;22.30;40.00
67899;DHT22;54699;51.796;10.956;2024-02-26T08:33:48;22.40;40.00
67899;DHT22;54699;51.796;10.956;2024-02-26T08:36:16;22.30;39.90
67899;DHT22;54699;51.796;10.956;2024-02-26T08:38:43;22.40;39.90
67899;DHT22;54699;51.796;10.956;2024-02-26T08:41:11;22.30;39.80
67899;DHT22;54699;51.796;10.956;2024-02-26T08:43:39;22.40;40.60
67899;DHT22;54699;51.796;10.956;2024-02-26T08:46:08;22.20;40.80
67899;DHT22;54699;51.796;10.956;2024-02-26T08:48:43;22.20;41.40
67899;DHT22;54699;51.796;10.956;2024-02-26T08:51:11;22.20;41.80
67899;DHT22;54699;51.796;10.956;2024-02-26T08:53:39;22.30;41.70
67899;DHT22;54699;51.796;10.956;2024-02-26T08:56:07;22.30;42.10
67899;DHT22;54699;51.796;10.956;2024-02-26T08:58:35;22.30;41.80
67899;DHT22;54699;51.796;10.956;2024-02-26T09:01:04;22.40;42.40
67899;DHT22;54699;51.796;10.956;2024-02-26T09:03:31;22.40;42.70
67899;DHT22;54699;51.796;10.956;2024-02-26T09:05:58;22.40;40.00
67899;DHT22;54699;51.796;10.956;2024-02-26T09:08:26;22.50;40.40
67899;DHT22;54699;51.796;10.956;2024-02-26T09:10:53;22.50;40.20
67899;DHT22;54699;51.796;10.956;2024-02-26T09:13:20;22.60;40.30
67899;DHT22;54699;51.796;10.956;2024-02-26T09:15:48;22.50;40.60
67899;DHT22;54699;51.796;10.956;2024-02-26T09:18:15;22.50;40.70
67899;DHT22;54699;51.796;10.956;2024-02-26T09:20:43;22.60;40.50
67899;DHT22;54699;51.796;10.956;2024-02-26T09:23:12;22.50;40.60
67899;DHT22;54699;51.796;10.956;2024-02-26T09:25:39;22.50;40.70
67899;DHT22;54699;51.796;10.956;2024-02-26T09:28:06;22.50;40.40
67899;DHT22;54699;51.796;10.956;2024-02-26T09:30:33;22.40;40.50
67899;DHT22;54699;51.796;10.956;2024-02-26T09:33:02;22.40;40.50
67899;DHT22;54699;51.796;10.956;2024-02-26T09:35:29;22.30;40.90
67899;DHT22;54699;51.796;10.956;2024-02-26T09:37:56;22.40;40.50
67899;DHT22;54699;51.796;10.956;2024-02-26T09:40:23;22.30;40.40
67899;DHT22;54699;51.796;10.956;2024-02-26T09:42:50;22.20;40.40
67899;DHT22;54699;51.796;10.956;2024-02-26T09:45:25;22.30;40.60
67899;DHT22;54699;51.796;10.956;2024-02-26T09:47:55;22.30;40.70
67899;DHT22;54699;51.796;10.956;2024-02-26T09:50:24;22.30;40.40
67899;DHT22;54699;51.796;10.956;2024-02-26T09:52:51;22.20;40.50
67899;DHT22;54699;51.796;10.956;2024-02-26T09:55:19;22.20;40.40
67899;DHT22;54699;51.796;10.956;2024-02-26T09:57:46;22.20;40.30
67899;DHT22;54699;51.796;10.956;2024-02-26T10:00:18;22.30;40.10
67899;DHT22;54699;51.796;10.956;2024-02-26T10:02:46;22.30;40.00
67899;DHT22;54699;51.796;10.956;2024-02-26T10:05:22;22.30;40.10
67899;DHT22;54699;51.796;10.956;2024-02-26T10:07:52;22.30;40.00
67899;DHT22;54699;51.796;10.956;2024-02-26T10:10:21;22.40;39.90
67899;DHT22;54699;51.796;10.956;2024-02-26T10:12:49;22.40;40.00
67899;DHT22;54699;51.796;10.956;2024-02-26T10:15:16;22.50;39.60
67899;DHT22;54699;51.796;10.956;2024-02-26T10:17:43;22.50;39.60
67899;DHT22;54699;51.796;10.956;2024-02-26T10:20:14;22.50;39.70
67899;DHT22;54699;51.796;10.956;2024-02-26T10:22:44;22.50;39.60
67899;DHT22;54699;51.796;10.956;2024-02-26T10:25:11;22.50;39.50
67899;DHT22;54699;51.796;10.956;2024-02-26T10:27:40;22.40;39.40
67899;DHT22;54699;51.796;10.956;2024-02-26T10:30:15;22.50;39.50
67899;DHT22;54699;51.796;10.956;2024-02-26T10:32:46;22.50;39.60
67899;DHT22;54699;51.796;10.956;2024-02-26T10:35:20;22.50;39.50
67899;DHT22;54699;51.796;10.956;2024-02-26T10:38:00;22.50;39.50
67899;DHT22;54699;51.796;10.956;2024-02-26T10:40:28;22.70;39.20
67899;DHT22;54699;51.796;10.956;2024-02-26T10:42:55;22.90;39.60
67899;DHT22;54699;51.796;10.956;2024-02-26T10:45:28;22.80;39.90
67899;DHT22;54699;51.796;10.956;2024-02-26T10:47:55;22.80;39.90
67899;DHT22;54699;51.796;10.956;2024-02-26T10:50:24;22.80;40.20
67899;DHT22;54699;51.796;10.956;2024-02-26T10:52:52;22.90;40.10
67899;DHT22;54699;51.796;10.956;2024-02-26T10:55:24;23.00;40.70
67899;DHT22;54699;51.796;10.956;2024-02-26T10:57:53;23.10;40.70
67899;DHT22;54699;51.796;10.956;2024-02-26T11:00:22;23.10;40.40
67899;DHT22;54699;51.796;10.956;2024-02-26T11:02:51;23.10;40.40
67899;DHT22;54699;51.796;10.956;2024-02-26T11:05:19;23.00;40.60
67899;DHT22;54699;51.796;10.956;2024-02-26T11:07:47;22.90;40.50
67899;DHT22;54699;51.796;10.956;2024-02-26T11:10:17;23.00;39.80
67899;DHT22;54699;51.796;10.956;2024-02-26T11:12:46;22.90;39.50
67899;DHT22;54699;51.796;10.956;2024-02-26T11:15:16;22.80;39.50
67899;DHT22;54699;51.796;10.956;2024-02-26T11:17:44;22.80;39.50
67899;DHT22;54699;51.796;10.956;2024-02-26T11:20:14;22.70;39.80
67899;DHT22;54699;51.796;10.956;2024-02-26T11:22:41;22.90;39.40
67899;DHT22;54699;51.796;10.956;2024-02-26T11:25:08;23.10;39.10
67899;DHT22;54699;51.796;10.956;2024-02-26T11:27:37;23.20;38.80
67899;DHT22;54699;51.796;10.956;2024-02-26T11:30:10;23.30;39.00
67899;DHT22;54699;51.796;10.956;2024-02-26T11:32:44;23.30;39.30
67899;DHT22;54699;51.796;10.956;2024-02-26T11:35:11;23.30;39.40
67899;DHT22;54699;51.796;10.956;2024-02-26T11:37:40;23.30;39.50
67899;DHT22;54699;51.796;10.956;2024-02-26T11:40:10;23.20;39.30
67899;DHT22;54699;51.796;10.956;2024-02-26T11:42:43;23.30;38.60
67899;DHT22;54699;51.796;10.956;2024-02-26T11:48:11;23.30;38.60
67899;DHT22;54699;51.796;10.956;2024-02-26T11:50:39;23.30;39.10
67899;DHT22;54699;51.796;10.956;2024-02-26T11:53:19;23.40;38.60
67899;DHT22;54699;51.796;10.956;2024-02-26T11:55:47;23.50;38.10
67899;DHT22;54699;51.796;10.956;2024-02-26T11:58:15;23.30;38.60
67899;DHT22;54699;51.796;10.956;2024-02-26T12:00:42;23.30;38.70
67899;DHT22;54699;51.796;10.956;2024-02-26T12:03:14;23.30;38.50
67899;DHT22;54699;51.796;10.956;2024-02-26T12:05:43;23.40;38.50
67899;DHT22;54699;51.796;10.956;2024-02-26T12:08:10;23.50;38.30
67899;DHT22;54699;51.796;10.956;2024-02-26T12:10:38;23.30;38.20
67899;DHT22;54699;51.796;10.956;2024-02-26T12:13:06;23.50;38.00
67899;DHT22;54699;51.796;10.956;2024-02-26T12:15:36;23.70;37.70
67899;DHT22;54699;51.796;10.956;2024-02-26T12:18:04;23.70;37.70
67899;DHT22;54699;51.796;10.956;2024-02-26T12:20:36;23.80;37.40
67899;DHT22;54699;51.796;10.956;2024-02-26T12:23:05;23.80;37.30
67899;DHT22;54699;51.796;10.956;2024-02-26T12:25:33;23.80;37.30
67899;DHT22;54699;51.796;10.956;2024-02-26T12:28:00;23.70;37.10
67899;DHT22;54699;51.796;10.956;2024-02-26T12:30:30;23.80;37.20
67899;DHT22;54699;51.796;10.956;2024-02-26T12:32:58;23.80;37.30
67899;DHT22;54699;51.796;10.956;2024-02-26T12:35:26;23.80;37.20
67899;DHT22;54699;51.796;10.956;2024-02-26T12:37:58;23.80;37.10
67899;DHT22;54699;51.796;10.956;2024-02-26T12:40:25;23.70;37.30
67899;DHT22;54699;51.796;10.956;2024-02-26T12:42:54;23.80;37.30
67899;DHT22;54699;51.796;10.956;2024-02-26T12:45:21;23.70;37.40
67899;DHT22;54699;51.796;10.956;2024-02-26T12:47:51;23.60;37.50
67899;DHT22;54699;51.796;10.956;2024-02-26T12:50:18;23.60;37.80
67899;DHT22;54699;51.796;10.956;2024-02-26T12:52:46;23.60;37.80
67899;DHT22;54699;51.796;10.956;2024-02-26T12:55:16;23.70;37.50
67899;DHT22;54699;51.796;10.956;2024-02-26T12:57:45;23.70;37.60
67899;DHT22;54699;51.796;10.956;2024-02-26T13:00:15;23.70;37.40
67899;DHT22;54699;51.796;10.956;2024-02-26T13:02:45;23.80;37.30
67899;DHT22;54699;51.796;10.956;2024-02-26T13:05:15;23.60;37.60
67899;DHT22;54699;51.796;10.956;2024-02-26T13:07:45;23.70;37.40
67899;DHT22;54699;51.796;10.956;2024-02-26T13:10:13;23.50;37.50
67899;DHT22;54699;51.796;10.956;2024-02-26T13:12:46;23.60;37.70
67899;DHT22;54699;51.796;10.956;2024-02-26T13:15:25;23.70;37.30
67899;DHT22;54699;51.796;10.956;2024-02-26T13:17:52;23.70;37.00
67899;DHT22;54699;51.796;10.956;2024-02-26T13:20:27;23.90;36.80
67899;DHT22;54699;51.796;10.956;2024-02-26T13:23:01;23.80;36.70
67899;DHT22;54699;51.796;10.956;2024-02-26T13:25:28;23.90;36.70
67899;DHT22;54699;51.796;10.956;2024-02-26T13:28:05;23.90;36.70
67899;DHT22;54699;51.796;10.956;2024-02-26T13:30:33;23.70;36.50
67899;DHT22;54699;51.796;10.956;2024-02-26T13:33:07;23.70;37.20
67899;DHT22;54699;51.796;10.956;2024-02-26T13:35:35;23.60;37.50
67899;DHT22;54699;51.796;10.956;2024-02-26T13:38:04;23.50;37.20
67899;DHT22;54699;51.796;10.956;2024-02-26T13:40:33;23.80;36.80
67899;DHT22;54699;51.796;10.956;2024-02-26T13:43:00;23.60;37.40
67899;DHT22;54699;51.796;10.956;2024-02-26T13:45:28;23.60;37.10
67899;DHT22;54699;51.796;10.956;2024-02-26T13:47:55;23.40;37.60
67899;DHT22;54699;51.796;10.956;2024-02-26T13:50:28;23.50;37.20
67899;DHT22;54699;51.796;10.956;2024-02-26T13:52:57;23.40;37.20
67899;DHT22;54699;51.796;10.956;2024-02-26T13:55:25;23.30;37.50
67899;DHT22;54699;51.796;10.956;2024-02-26T13:57:53;23.50;38.60
67899;DHT22;54699;51.796;10.956;2024-02-26T14:00:20;23.40;39.40
67899;DHT22;54699;51.796;10.956;2024-02-26T14:02:49;23.30;39.10
67899;DHT22;54699;51.796;10.956;2024-02-26T14:05:16;23.70;38.40
67899;DHT22;54699;51.796;10.956;2024-02-26T14:07:43;23.80;38.30
67899;DHT22;54699;51.796;10.956;2024-02-26T14:10:11;23.80;38.40
67899;DHT22;54699;51.796;10.956;2024-02-26T14:12:42;23.90;38.10
67899;DHT22;54699;51.796;10.956;2024-02-26T14:15:09;23.90;37.90
67899;DHT22;54699;51.796;10.956;2024-02-26T14:17:37;23.80;37.30
67899;DHT22;54699;51.796;10.956;2024-02-26T14:20:08;23.80;37.30
67899;DHT22;54699;51.796;10.956;2024-02-26T14:22:37;23.90;37.00
67899;DHT22;54699;51.796;10.956;2024-02-26T14:25:04;23.90;36.70
67899;DHT22;54699;51.796;10.956;2024-02-26T14:27:31;23.90;36.70
67899;DHT22;54699;51.796;10.956;2024-02-26T14:29:58;23.70;37.30
67899;DHT22;54699;51.796;10.956;2024-02-26T14:32:25;23.70;38.20
67899;DHT22;54699;51.796;10.956;2024-02-26T14:34:53;23.60;37.40
67899;DHT22;54699;51.796;10.956;2024-02-26T14:37:21;23.70;37.60
67899;DHT22;54699;51.796;10.956;2024-02-26T14:39:48;23.70;37.20
67899;DHT22;54699;51.796;10.956;2024-02-26T14:42:18;23.70;36.90
67899;DHT22;54699;51.796;10.956;2024-02-26T14:44:44;23.50;37.10
67899;DHT22;54699;51.796;10.956;2024-02-26T14:47:13;23.50;37.20
67899;DHT22;54699;51.796;10.956;2024-02-26T14:49:40;23.60;37.30
67899;DHT22;54699;51.796;10.956;2024-02-26T14:52:07;23.50;37.10
67899;DHT22;54699;51.796;10.956;2024-02-26T14:54:35;23.60;38.00
67899;DHT22;54699;51.796;10.956;2024-02-26T14:57:04;23.70;37.60
67899;DHT22;54699;51.796;10.956;2024-02-26T14:59:31;23.80;37.20
67899;DHT22;54699;51.796;10.956;2024-02-26T15:01:58;23.90;36.90
67899;DHT22;54699;51.796;10.956;2024-02-26T15:04:26;23.80;36.70
67899;DHT22;54699;51.796;10.956;2024-02-26T15:06:53;23.60;36.70
67899;DHT22;54699;51.796;10.956;2024-02-26T15:09:20;23.30;37.60
67899;DHT22;54699;51.796;10.956;2024-02-26T15:11:48;23.00;38.00
67899;DHT22;54699;51.796;10.956;2024-02-26T15:14:15;22.70;38.60
67899;DHT22;54699;51.796;10.956;2024-02-26T15:16:43;22.40;40.40
67899;DHT22;54699;51.796;10.956;2024-02-26T15:19:10;22.10;41.10
67899;DHT22;54699;51.796;10.956;2024-02-26T15:21:41;21.80;40.80
67899;DHT22;54699;51.796;10.956;2024-02-26T15:24:09;21.60;41.60